Time;durP1;ratioP1;P1;durP2;ratioP2;P2;SDS_P1;SDS_P2;PMS_P1;PMS_P2;Temp;Humidity;BMP_temperature;BMP_pressure;BME280_temperature;BME280_humidity;BME280_pressure;Samples;Min_cycle;Max_cycle;Signal;HPM_P1;HPM_P2
2022/08/02 00:00:09;;;;;;;8.48;1.58;;;;;;;;;;5004279;28;20693;-73
2022/08/02 00:02:35;;;;;;;8.65;2.13;;;;;;;;;;5010188;28;20077;-73
2022/08/02 00:05:01;;;;;;;7.65;2.00;;;;;;;;;;5008421;28;20038;-73
2022/08/02 00:07:27;;;;;;;5.18;1.40;;;;;;;;;;5010984;28;20034;-73
2022/08/02 00:09:53;;;;;;;9.13;1.73;;;;;;;;;;5011026;28;20503;-74
2022/08/02 00:12:19;;;;;;;7.60;1.52;;;;;;;;;;5004903;28;20042;-74
2022/08/02 00:14:45;;;;;;;8.25;1.63;;;;;;;;;;5011476;28;20022;-74
2022/08/02 00:17:11;;;;;;;11.77;1.80;;;;;;;;;;5003825;28;20043;-74
2022/08/02 00:19:37;;;;;;;7.85;1.55;;;;;;;;;;5002509;28;20386;-74
2022/08/02 00:22:03;;;;;;;7.28;1.52;;;;;;;;;;4999729;28;20058;-74
2022/08/02 00:24:29;;;;;;;10.27;1.95;;;;;;;;;;5005783;28;20038;-74
2022/08/02 00:26:55;;;;;;;9.40;2.15;;;;;;;;;;5002754;28;20474;-74
2022/08/02 00:29:21;;;;;;;9.23;2.42;;;;;;;;;;5011961;28;20026;-74
2022/08/02 00:31:47;;;;;;;7.85;2.35;;;;;;;;;;4997615;28;20038;-74
2022/08/02 00:34:13;;;;;;;5.25;1.83;;;;;;;;;;5004900;28;20493;-73
2022/08/02 00:36:39;;;;;;;16.77;3.58;;;;;;;;;;5006359;28;20312;-73
2022/08/02 00:39:05;;;;;;;10.90;2.70;;;;;;;;;;5011136;28;20152;-74
2022/08/02 00:41:31;;;;;;;7.15;1.90;;;;;;;;;;5009027;28;20089;-74
2022/08/02 00:43:57;;;;;;;12.23;2.00;;;;;;;;;;5006970;28;20382;-74
2022/08/02 00:46:23;;;;;;;11.30;2.05;;;;;;;;;;5008461;28;20486;-74
2022/08/02 00:48:49;;;;;;;10.57;2.15;;;;;;;;;;5010965;28;20036;-74
2022/08/02 00:51:16;;;;;;;7.40;2.25;;;;;;;;;;5008194;28;20513;-73
2022/08/02 00:53:42;;;;;;;10.27;2.38;;;;;;;;;;5010781;28;20033;-74
2022/08/02 00:56:08;;;;;;;10.52;2.53;;;;;;;;;;5007741;28;20042;-73
2022/08/02 00:58:34;;;;;;;12.70;2.10;;;;;;;;;;5004237;28;20679;-74
2022/08/02 01:01:00;;;;;;;8.88;1.70;;;;;;;;;;5002940;28;20050;-74
2022/08/02 01:03:27;;;;;;;11.70;2.15;;;;;;;;;;4991330;28;20061;-74
2022/08/02 01:05:54;;;;;;;8.13;2.25;;;;;;;;;;5007425;28;20038;-74
2022/08/02 01:08:20;;;;;;;13.05;2.30;;;;;;;;;;5002712;28;20041;-74
2022/08/02 01:10:46;;;;;;;12.55;2.85;;;;;;;;;;5014445;28;20482;-74
2022/08/02 01:13:12;;;;;;;7.20;2.40;;;;;;;;;;5011809;28;20081;-74
2022/08/02 01:15:40;;;;;;;14.68;2.60;;;;;;;;;;5008101;28;20144;-74
2022/08/02 01:18:08;;;;;;;5.45;2.17;;;;;;;;;;5009278;28;20030;-74
2022/08/02 01:20:53;;;;;;;11.75;2.33;;;;;;;;;;5011736;28;20029;-74
2022/08/02 01:23:25;;;;;;;7.93;2.30;;;;;;;;;;5008685;28;20041;-74
2022/08/02 01:25:51;;;;;;;10.85;3.33;;;;;;;;;;5007756;28;20057;-74
2022/08/02 01:28:17;;;;;;;18.33;3.50;;;;;;;;;;5012571;28;20044;-74
2022/08/02 01:30:45;;;;;;;12.25;2.22;;;;;;;;;;5015917;28;20108;-74
2022/08/02 01:33:12;;;;;;;7.95;2.03;;;;;;;;;;5015273;28;20106;-74
2022/08/02 01:35:41;;;;;;;8.77;2.20;;;;;;;;;;5011552;28;20057;-74
2022/08/02 01:38:11;;;;;;;11.38;2.33;;;;;;;;;;5002391;28;20065;-74
2022/08/02 01:40:39;;;;;;;11.73;2.40;;;;;;;;;;5008869;28;20038;-74
2022/08/02 01:43:06;;;;;;;9.30;2.25;;;;;;;;;;5010993;28;20096;-74
2022/08/02 01:45:33;;;;;;;9.27;2.58;;;;;;;;;;5008588;28;20080;-74
2022/08/02 01:47:59;;;;;;;12.35;2.22;;;;;;;;;;5000214;28;20655;-74
2022/08/02 01:50:27;;;;;;;10.65;2.60;;;;;;;;;;5012417;28;20061;-74
2022/08/02 01:52:55;;;;;;;9.43;2.35;;;;;;;;;;5010874;28;20029;-74
2022/08/02 01:55:34;;;;;;;5.75;2.15;;;13.80;99.90;;;;;;5013391;28;20080;-74
2022/08/02 01:58:02;;;;;;;8.23;2.17;;;;;;;;;;5006050;28;20103;-73
2022/08/02 02:00:31;;;;;;;9.52;2.00;;;13.50;99.90;;;;;;5005849;28;20099;-74
2022/08/02 02:02:58;;;;;;;10.10;4.78;;;;;;;;;;5013838;28;20125;-76
2022/08/02 02:05:25;;;;;;;12.07;3.63;;;;;;;;;;5008012;28;20034;-77
2022/08/02 02:07:55;;;;;;;17.02;4.00;;;;;;;;;;5013598;28;20107;-77
2022/08/02 02:10:25;;;;;;;13.05;3.40;;;;;;;;;;5013023;28;20034;-74
2022/08/02 02:12:52;;;;;;;11.05;2.67;;;;;;;;;;5010635;28;20378;-75
2022/08/02 02:15:18;;;;;;;8.80;1.75;;;;;;;;;;5007180;28;20037;-74
2022/08/02 02:17:45;;;;;;;9.93;2.72;;;;;;;;;;5007015;28;20438;-75
2022/08/02 02:20:16;;;;;;;9.85;2.00;;;;;;;;;;5009765;28;20488;-74
2022/08/02 02:22:42;;;;;;;11.75;2.90;;;;;;;;;;5009515;28;20022;-74
2022/08/02 02:25:09;;;;;;;5.90;1.90;;;;;;;;;;5010968;28;20034;-75
2022/08/02 02:27:36;;;;;;;8.45;2.03;;;;;;;;;;5022666;28;20030;-75
2022/08/02 02:30:04;;;;;;;12.25;2.33;;;;;;;;;;5021638;28;20028;-75
2022/08/02 02:32:32;;;;;;;9.40;2.30;;;13.50;99.90;;;;;;5004662;28;20044;-75
2022/08/02 02:34:59;;;;;;;24.05;10.85;;;;;;;;;;5006416;28;20084;-74
2022/08/02 02:37:27;;;;;;;11.40;2.70;;;13.70;99.90;;;;;;5011515;28;20030;-73
2022/08/02 02:39:54;;;;;;;13.57;3.65;;;;;;;;;;5011475;28;20469;-74
2022/08/02 02:42:23;;;;;;;11.60;2.55;;;;;;;;;;5011840;28;20030;-74
2022/08/02 02:44:49;;;;;;;11.23;2.33;;;;;;;;;;5010271;28;20033;-74
2022/08/02 02:47:16;;;;;;;6.05;1.98;;;;;;;;;;5004584;28;20048;-74
2022/08/02 02:49:44;;;;;;;12.07;2.50;;;;;;;;;;5001933;28;20030;-74
2022/08/02 02:52:13;;;;;;;10.65;2.65;;;;;;;;;;5007748;28;20026;-74
2022/08/02 02:54:39;;;;;;;14.00;2.33;;;;;;;;;;5006724;28;20033;-74
2022/08/02 02:57:06;;;;;;;15.13;4.60;;;;;;;;;;5011905;28;20389;-73
2022/08/02 02:59:35;;;;;;;11.25;2.28;;;;;;;;;;4997629;28;20360;-73
2022/08/02 03:02:01;;;;;;;10.65;3.45;;;;;;;;;;5010240;28;20053;-74
2022/08/02 03:04:28;;;;;;;7.75;2.38;;;13.30;99.90;;;;;;5006611;28;20035;-74
2022/08/02 03:06:54;;;;;;;8.73;3.05;;;;;;;;;;5010426;28;20100;-74
2022/08/02 03:09:20;;;;;;;10.65;2.35;;;;;;;;;;5011449;28;20373;-74
2022/08/02 03:11:46;;;;;;;9.20;2.75;;;;;;;;;;5011456;28;20037;-74
2022/08/02 03:14:13;;;;;;;7.35;2.28;;;;;;;;;;5009678;28;20033;-74
2022/08/02 03:16:47;;;;;;;8.30;2.83;;;;;;;;;;5007682;28;20149;-74
2022/08/02 03:19:13;;;;;;;8.55;2.45;;;;;;;;;;5005965;28;20037;-74
2022/08/02 03:21:39;;;;;;;8.85;3.22;;;;;;;;;;5008551;28;20030;-74
2022/08/02 03:24:05;;;;;;;8.65;2.40;;;;;;;;;;5008373;28;20116;-74
2022/08/02 03:26:31;;;;;;;6.85;2.10;;;;;;;;;;5008151;28;20184;-74
2022/08/02 03:28:57;;;;;;;7.95;2.10;;;;;;;;;;5003308;28;20063;-74
2022/08/02 03:31:23;;;;;;;11.07;2.55;;;;;;;;;;5011249;28;20209;-74
2022/08/02 03:33:49;;;;;;;14.05;2.97;;;;;;;;;;5011589;28;20112;-74
2022/08/02 03:36:18;;;;;;;13.65;3.72;;;;;;;;;;5005156;28;20057;-74
2022/08/02 03:38:44;;;;;;;11.85;2.40;;;;;;;;;;5011997;28;20053;-74
2022/08/02 03:41:11;;;;;;;5.20;2.15;;;;;;;;;;5004531;28;22462;-74
2022/08/02 03:43:38;;;;;;;7.75;2.50;;;;;;;;;;5011888;28;20077;-74
2022/08/02 03:46:05;;;;;;;6.57;3.10;;;;;;;;;;5003039;28;20030;-74
2022/08/02 03:48:32;;;;;;;11.15;3.00;;;;;;;;;;5000093;28;20034;-75
2022/08/02 03:50:59;;;;;;;9.82;3.38;;;;;;;;;;5005406;28;20452;-75
2022/08/02 03:53:25;;;;;;;6.40;2.55;;;;;;;;;;5008121;28;20032;-74
2022/08/02 03:55:51;;;;;;;15.57;3.90;;;;;;;;;;5009554;28;20033;-74
2022/08/02 03:58:18;;;;;;;13.23;2.70;;;;;;;;;;5011979;28;20080;-74
2022/08/02 04:00:44;;;;;;;8.38;3.03;;;;;;;;;;5006995;28;20041;-74
2022/08/02 04:03:10;;;;;;;9.57;3.25;;;;;;;;;;5009594;28;20156;-74
2022/08/02 04:05:36;;;;;;;8.95;2.50;;;;;;;;;;5008524;28;20487;-74
2022/08/02 04:08:02;;;;;;;8.80;2.70;;;;;;;;;;5011041;28;20025;-74
2022/08/02 04:10:28;;;;;;;11.48;3.72;;;;;;;;;;5006618;28;20393;-74
2022/08/02 04:12:55;;;;;;;8.13;3.03;;;;;;;;;;5008003;28;20041;-74
2022/08/02 04:15:22;;;;;;;9.93;2.90;;;;;;;;;;5011205;28;20029;-74
2022/08/02 04:17:56;;;;;;;14.68;3.38;;;;;;;;;;5008443;28;20023;-74
2022/08/02 04:20:24;;;;;;;11.10;3.85;;;;;;;;;;5008954;28;20124;-74
2022/08/02 04:23:09;;;;;;;5.45;2.70;;;;;;;;;;5007992;28;20045;-74
2022/08/02 04:25:36;;;;;;;9.15;2.80;;;;;;;;;;5008119;28;20159;-74
2022/08/02 04:28:02;;;;;;;6.65;2.85;;;;;;;;;;5008207;28;20030;-74
2022/08/02 04:30:29;;;;;;;11.10;3.67;;;;;;;;;;5003739;28;20116;-74
2022/08/02 04:32:55;;;;;;;10.77;2.70;;;;;;;;;;5008311;28;20030;-74
2022/08/02 04:35:21;;;;;;;8.80;3.25;;;;;;;;;;5008052;28;20032;-74
2022/08/02 04:37:48;;;;;;;12.10;3.38;;;;;;;;;;5011403;28;20042;-74
2022/08/02 04:40:17;;;;;;;9.50;3.05;;;;;;;;;;5009478;28;20037;-74
2022/08/02 04:42:43;;;;;;;9.05;2.80;;;;;;;;;;4998645;28;20038;-74
2022/08/02 04:45:10;;;;;;;13.20;3.53;;;;;;;;;;5008698;28;20034;-74
2022/08/02 04:47:36;;;;;;;11.20;2.72;;;;;;;;;;5010149;28;20471;-74
2022/08/02 04:50:02;;;;;;;13.10;4.18;;;;;;;;;;5008455;28;20037;-74
2022/08/02 04:52:28;;;;;;;7.93;2.47;;;;;;;;;;5015360;28;20029;-74
2022/08/02 04:54:54;;;;;;;11.93;3.30;;;;;;;;;;5010497;28;20472;-74
2022/08/02 05:00:06;;;;;;;11.05;2.65;;;;;;;;;;5003285;28;20501;-74
2022/08/02 05:02:32;;;;;;;11.20;2.78;;;;;;;;;;5009483;28;20554;-75
2022/08/02 05:04:58;;;;;;;10.93;3.10;;;;;;;;;;5009588;28;20470;-75
2022/08/02 05:07:24;;;;;;;10.77;2.75;;;;;;;;;;5010718;28;20536;-74
2022/08/02 05:09:50;;;;;;;11.82;3.10;;;;;;;;;;5010567;28;20038;-74
2022/08/02 05:12:16;;;;;;;9.35;2.53;;;;;;;;;;5014977;28;20049;-74
2022/08/02 05:14:42;;;;;;;10.25;2.88;;;;;;;;;;5015098;28;20379;-74
2022/08/02 05:17:08;;;;;;;13.07;3.13;;;;;;;;;;5008488;28;20105;-74
2022/08/02 05:19:34;;;;;;;6.47;2.55;;;;;;;;;;5012084;28;20400;-74
2022/08/02 05:22:00;;;;;;;8.02;2.70;;;;;;;;;;5014374;28;20083;-74
2022/08/02 05:24:26;;;;;;;7.97;2.95;;;;;;;;;;5009629;28;20061;-74
2022/08/02 05:26:52;;;;;;;12.38;2.88;;;;;;;;;;5012701;28;20037;-74
2022/08/02 05:29:18;;;;;;;8.38;3.00;;;;;;;;;;5011844;28;20436;-74
2022/08/02 05:31:45;;;;;;;7.13;2.15;;;;;;;;;;5018293;28;20033;-74
2022/08/02 05:34:11;;;;;;;9.60;3.10;;;;;;;;;;5010489;28;20073;-74
2022/08/02 05:36:37;;;;;;;8.02;2.88;;;;;;;;;;5013048;28;20030;-74
2022/08/02 05:39:03;;;;;;;7.65;2.50;;;;;;;;;;5007169;28;20034;-74
2022/08/02 05:41:29;;;;;;;9.27;2.53;;;;;;;;;;5009422;28;20030;-74
2022/08/02 05:43:55;;;;;;;7.30;2.42;;;;;;;;;;5010639;28;20048;-74
2022/08/02 05:46:21;;;;;;;5.53;2.28;;;;;;;;;;5006303;28;20049;-74
2022/08/02 05:48:47;;;;;;;10.40;2.50;;;;;;;;;;5011163;28;20080;-74
2022/08/02 05:51:20;;;;;;;9.63;2.50;;;;;;;;;;5011943;28;20117;-74
2022/08/02 05:53:49;;;;;;;;;;;14.80;99.90;;;;;;5008604;28;20057;-74
2022/08/02 05:56:28;;;;;;;8.40;2.50;;;;;;;;;;5013385;28;20321;-74
2022/08/02 05:59:20;;;;;;;11.93;2.70;;;;;;;;;;5011019;28;20034;-75
2022/08/02 06:01:48;;;;;;;10.32;2.90;;;;;;;;;;4980767;28;20065;-74
2022/08/02 06:04:20;;;;;;;8.25;1.95;;;;;;;;;;4999192;28;20030;-74
2022/08/02 06:06:48;;;;;;;15.15;3.28;;;;;;;;;;5006505;28;20465;-75
2022/08/02 06:09:17;;;;;;;14.10;3.67;;;;;;;;;;5008479;28;20022;-75
2022/08/02 06:11:46;;;;;;;18.20;2.13;;;;;;;;;;5015319;28;20037;-74
2022/08/02 06:14:12;;;;;;;7.93;2.17;;;;;;;;;;5016455;28;20104;-74
2022/08/02 06:16:39;;;;;;;10.60;4.07;;;;;;;;;;4999263;28;20083;-74
2022/08/02 06:19:05;;;;;;;10.80;5.13;;;;;;;;;;5005333;28;20418;-74
2022/08/02 06:21:31;;;;;;;12.15;2.35;;;;;;;;;;5008230;28;20042;-74
2022/08/02 06:23:58;;;;;;;11.32;2.00;;;16.80;99.90;;;;;;5012597;28;20580;-75
2022/08/02 06:26:24;;;;;;;7.85;2.22;;;;;;;;;;5004745;28;20066;-74
2022/08/02 06:28:53;;;;;;;7.75;2.25;;;17.40;99.90;;;;;;5005142;28;20038;-73
2022/08/02 06:31:19;;;;;;;6.22;2.20;;;;;;;;;;5010070;28;20038;-73
2022/08/02 06:33:45;;;;;;;12.95;1.85;;;;;;;;;;5005992;28;20041;-74
2022/08/02 06:36:29;;;;;;;7.35;1.77;;;;;;;;;;5007356;28;20037;-74
2022/08/02 06:38:59;;;;;;;7.63;2.00;;;;;;;;;;5011642;28;20548;-74
2022/08/02 06:41:25;;;;;;;9.73;2.00;;;;;;;;;;4997444;28;21621;-73
2022/08/02 06:44:01;;;;;;;7.60;2.05;;;;;;;;;;5005811;28;20027;-73
2022/08/02 06:46:27;;;;;;;10.82;2.38;;;;;;;;;;5007703;28;20052;-74
2022/08/02 06:48:54;;;;;;;6.35;1.67;;;;;;;;;;5021299;28;20021;-74
2022/08/02 06:51:20;;;;;;;12.23;1.88;;;;;;;;;;5010497;28;20088;-74
2022/08/02 06:53:46;;;;;;;8.20;1.98;;;;;;;;;;5010312;28;20464;-73
2022/08/02 06:56:12;;;;;;;7.78;1.67;;;;;;;;;;5007769;28;20033;-74
2022/08/02 06:58:39;;;;;;;6.70;1.55;;;;;;;;;;5008986;28;20548;-73
2022/08/02 07:01:06;;;;;;;5.00;1.50;;;;;;;;;;4994435;28;20046;-74
2022/08/02 07:03:35;;;;;;;5.68;1.40;;;;;;;;;;5008546;28;20494;-74
2022/08/02 07:06:01;;;;;;;5.35;1.95;;;;;;;;;;5011770;28;20026;-75
2022/08/02 07:08:31;;;;;;;20.50;7.20;;;;;;;;;;5004573;28;20093;-75
2022/08/02 07:11:00;;;;;;;28.65;14.27;;;;;;;;;;5006403;28;20080;-75
2022/08/02 07:13:29;;;;;;;11.60;2.92;;;;;;;;;;5004287;28;20021;-74
2022/08/02 07:15:55;;;;;;;8.05;1.55;;;;;;;;;;5004420;28;20075;-75
2022/08/02 07:18:22;;;;;;;8.02;1.65;;;;;;;;;;5002098;28;20057;-74
2022/08/02 07:20:48;;;;;;;7.50;1.33;;;;;;;;;;4992937;28;20042;-74
2022/08/02 07:23:14;;;;;;;9.00;1.80;;;;;;;;;;5011016;28;20037;-73
2022/08/02 07:25:40;;;;;;;6.00;1.23;;;;;;;;;;5008761;28;20026;-74
2022/08/02 07:28:09;;;;;;;5.85;1.80;;;;;;;;;;5001716;28;20607;-75
2022/08/02 07:30:35;;;;;;;5.70;1.55;;;;;;;;;;5009365;28;20033;-73
2022/08/02 07:33:01;;;;;;;3.63;1.10;;;;;;;;;;5013528;28;20042;-75
2022/08/02 07:35:27;;;;;;;5.28;1.25;;;;;;;;;;5005173;28;20030;-73
2022/08/02 07:37:53;;;;;;;12.77;4.30;;;;;;;;;;5004575;28;20102;-74
2022/08/02 07:40:19;;;;;;;13.60;6.40;;;;;;;;;;5008507;28;20105;-74
2022/08/02 07:42:46;;;;;;;9.23;3.03;;;;;;;;;;5009571;28;20034;-75
2022/08/02 07:45:13;;;;;;;2.90;1.00;;;;;;;;;;5007611;28;20118;-74
2022/08/02 07:47:43;;;;;;;4.57;1.13;;;;;;;;;;5010060;28;20041;-74
2022/08/02 07:50:10;;;;;;;3.78;1.10;;;;;;;;;;5008718;28;20026;-74
2022/08/02 07:52:37;;;;;;;3.25;1.08;;;;;;;;;;5008048;28;20025;-74
2022/08/02 07:55:03;;;;;;;3.72;1.00;;;;;;;;;;5007842;28;20038;-74
2022/08/02 07:57:31;;;;;;;6.03;1.20;;;;;;;;;;5010077;28;20118;-74
2022/08/02 07:59:58;;;;;;;4.72;1.10;;;;;;;;;;5005372;28;20037;-74
2022/08/02 08:02:23;;;;;;;4.00;1.10;;;25.20;99.90;;;;;;5003756;28;20049;-76
2022/08/02 08:04:50;;;;;;;4.10;1.23;;;;;;;;;;4998619;28;20083;-75
2022/08/02 08:07:19;;;;;;;3.72;0.80;;;;;;;;;;5003423;28;20056;-75
2022/08/02 08:09:46;;;;;;;4.68;1.38;;;;;;;;;;5017519;28;20049;-75
2022/08/02 08:12:12;;;;;;;4.03;0.73;;;;;;;;;;5005874;28;20079;-75
2022/08/02 08:14:38;;;;;;;2.70;0.75;;;;;;;;;;5010812;28;20046;-74
2022/08/02 08:17:06;;;;;;;1.67;0.95;;;;;;;;;;5004738;28;20456;-75
2022/08/02 08:19:33;;;;;;;4.70;1.20;;;;;;;;;;5001251;28;20040;-75
2022/08/02 08:21:59;;;;;;;4.63;1.10;;;;;;;;;;4999837;28;20037;-75
2022/08/02 08:24:26;;;;;;;3.03;0.75;;;;;;;;;;4996121;28;20089;-75
2022/08/02 08:26:52;;;;;;;4.65;1.10;;;;;;;;;;5001925;28;20041;-77
2022/08/02 08:29:18;;;;;;;42.83;31.08;;;;;;;;;;5005911;28;20417;-76
2022/08/02 08:31:44;;;;;;;6.63;3.38;;;;;;;;;;5005081;28;20030;-75
2022/08/02 08:34:10;;;;;;;1.67;1.00;;;;;;;;;;5001067;28;20042;-76
2022/08/02 08:36:36;;;;;;;2.83;1.10;;;;;;;;;;4991575;28;20370;-74
2022/08/02 08:39:03;;;;;;;9.52;1.80;;;;;;;;;;5004362;28;20689;-74
2022/08/02 08:41:29;;;;;;;4.32;1.23;;;;;;;;;;5006363;28;20038;-75
2022/08/02 08:43:55;;;;;;;2.75;1.00;;;;;;;;;;5009260;28;20113;-79
2022/08/02 08:46:33;;;;;;;6.43;0.95;;;;;;;;;;5011804;28;20041;-79
2022/08/02 08:49:05;;;;;;;5.10;1.35;;;28.20;91.20;;;;;;4997906;28;20054;-77
2022/08/02 08:51:30;;;;;;;;;;;;;;;;;;5003584;28;20034;-78
2022/08/02 08:54:00;;;;;;;5.28;1.13;;;28.10;90.80;;;;;;5005108;28;19917;-77
2022/08/02 08:56:33;;;;;;;4.30;1.48;;;28.20;90.70;;;;;;5006637;28;20035;-75
2022/08/02 08:59:00;;;;;;;5.35;1.15;;;;;;;;;;4998656;28;20042;-77
2022/08/02 09:01:26;;;;;;;4.70;0.95;;;;;;;;;;5004473;28;20124;-73
2022/08/02 09:03:52;;;;;;;13.07;1.85;;;;;;;;;;4993842;28;20446;-76
2022/08/02 09:06:19;;;;;;;6.50;3.67;;;;;;;;;;5012990;28;20042;-76
2022/08/02 09:08:47;;;;;;;2.58;1.00;;;;;;;;;;5003092;28;20116;-76
2022/08/02 09:11:24;;;;;;;3.55;1.13;;;28.00;90.10;;;;;;5011504;28;20124;-76
2022/08/02 09:13:53;;;;;;;3.25;1.13;;;28.00;90.60;;;;;;5006701;28;20030;-76
2022/08/02 09:16:35;;;;;;;6.10;1.20;;;;;;;;;;5005832;28;20030;-76
2022/08/02 09:19:18;;;;;;;4.28;1.40;;;28.30;91.40;;;;;;5004155;28;20034;-75
2022/08/02 09:21:44;;;;;;;5.10;1.45;;;;;;;;;;4999181;28;20067;-75
2022/08/02 09:24:20;;;;;;;6.85;2.60;;;28.20;91.40;;;;;;5007495;28;20026;-75
2022/08/02 09:26:47;;;;;;;6.65;3.22;;;;;;;;;;5012395;28;20026;-76
2022/08/02 09:29:15;;;;;;;6.82;1.60;;;;;;;;;;5010489;28;20141;-76
2022/08/02 09:31:42;;;;;;;8.20;1.80;;;28.10;91.50;;;;;;5006000;28;20099;-75
2022/08/02 09:34:08;;;;;;;3.45;1.38;;;;;;;;;;5008948;28;20450;-75
2022/08/02 09:36:42;;;;;;;5.53;1.38;;;;;;;;;;5013201;28;20030;-75
2022/08/02 09:39:10;;;;;;;4.75;1.73;;;28.80;90.40;;;;;;5006010;28;20038;-75
2022/08/02 09:41:40;;;;;;;5.28;1.88;;;;;;;;;;5012579;28;20164;-76
2022/08/02 09:44:06;;;;;;;6.53;1.85;;;;;;;;;;5000912;28;20046;-75
2022/08/02 09:46:42;;;;;;;7.28;1.92;;;;;;;;;;5010868;28;20030;-74
2022/08/02 09:49:08;;;;;;;8.68;1.77;;;;;;;;;;5013436;28;20823;-74
2022/08/02 09:51:34;;;;;;;5.90;2.38;;;;;;;;;;5021941;28;20378;-74
2022/08/02 09:54:04;;;;;;;5.32;1.80;;;29.00;90.70;;;;;;5006379;28;20042;-73
2022/08/02 09:56:40;;;;;;;5.95;2.38;;;;;;;;;;4999439;28;20044;-75
2022/08/02 09:59:07;;;;;;;4.70;2.05;;;;;;;;;;4998749;28;20029;-76
2022/08/02 10:01:33;;;;;;;7.70;3.28;;;;;;;;;;5005948;28;20524;-76
2022/08/02 10:04:00;;;;;;;3.30;1.40;;;;;;;;;;5008065;28;20040;-73
2022/08/02 10:06:27;;;;;;;6.32;1.80;;;;;;;;;;5006797;28;20044;-75
2022/08/02 10:08:53;;;;;;;5.43;1.70;;;;;;;;;;5003194;28;20490;-75
2022/08/02 10:11:23;;;;;;;7.07;2.42;;;;;;;;;;5002337;28;20381;-76
2022/08/02 10:13:50;;;;;;;6.30;2.70;;;;;;;;;;5026649;28;20485;-75
2022/08/02 10:16:18;;;;;;;6.55;2.55;;;;;;;;;;5006855;28;20030;-76
2022/08/02 10:18:44;;;;;;;3.50;2.08;;;;;;;;;;5001065;28;20490;-76
2022/08/02 10:21:12;;;;;;;5.20;2.15;;;;;;;;;;5011037;28;20494;-75
2022/08/02 10:23:39;;;;;;;6.28;1.70;;;;;;;;;;5011582;28;20097;-75
2022/08/02 10:26:07;;;;;;;5.20;2.42;;;;;;;;;;5007803;28;20022;-75
2022/08/02 10:28:33;;;;;;;9.77;2.47;;;;;;;;;;5005033;28;20033;-75
2022/08/02 10:31:02;;;;;;;5.07;1.83;;;29.30;89.70;;;;;;5028093;28;20034;-74
2022/08/02 10:33:31;;;;;;;6.38;2.15;;;29.30;90.70;;;;;;5013257;28;20042;-75
2022/08/02 10:35:58;;;;;;;8.45;1.80;;;;;;;;;;5004025;28;20034;-70
2022/08/02 10:38:25;;;;;;;4.75;2.53;;;;;;;;;;5000323;28;20408;-73
2022/08/02 10:40:54;;;;;;;4.90;2.35;;;29.40;90.70;;;;;;5012176;28;20049;-72
2022/08/02 10:43:32;;;;;;;9.15;3.47;;;;;;;;;;5002259;28;20026;-73
2022/08/02 10:46:19;;;;;;;4.30;2.40;;;29.30;89.00;;;;;;5006596;28;20094;-71
2022/08/02 10:49:07;;;;;;;3.47;2.55;;;;;;;;;;5011691;28;20065;-73
2022/08/02 10:51:51;;;;;;;5.15;3.00;;;;;;;;;;5009659;28;20045;-72
2022/08/02 10:54:22;;;;;;;5.53;3.25;;;;;;;;;;5004840;28;20083;-71
2022/08/02 10:56:50;;;;;;;3.95;2.72;;;;;;;;;;5012942;28;20038;-73
2022/08/02 10:59:31;;;;;;;3.90;2.78;;;;;;;;;;5009576;28;20061;-71
2022/08/02 11:02:02;;;;;;;6.43;2.33;;;28.80;91.60;;;;;;5008260;28;20108;-72
2022/08/02 11:04:29;;;;;;;2.83;1.83;;;;;;;;;;5008233;28;20030;-73
2022/08/02 11:07:20;;;;;;;4.38;2.08;;;29.00;90.20;;;;;;5008627;28;20033;-73
2022/08/02 11:09:48;;;;;;;4.97;2.13;;;;;;;;;;5009583;28;20030;-73
2022/08/02 11:12:16;;;;;;;71.80;57.83;;;28.70;91.60;;;;;;5007920;28;20100;-72
2022/08/02 11:14:44;;;;;;;6.15;2.72;;;;;;;;;;5005257;28;20041;-74
2022/08/02 11:17:17;;;;;;;3.65;2.00;;;28.40;93.10;;;;;;5007149;28;20022;-72
2022/08/02 11:20:02;;;;;;;3.97;1.77;;;;;;;;;;5002211;28;20042;-72
2022/08/02 11:22:28;;;;;;;2.90;1.52;;;28.20;95.40;;;;;;5000889;28;20457;-73
2022/08/02 11:24:54;;;;;;;3.40;1.98;;;;;;;;;;5012005;28;20062;-73
2022/08/02 11:27:21;;;;;;;4.07;2.40;;;;;;;;;;5011775;28;20042;-73
2022/08/02 11:29:49;;;;;;;2.45;2.10;;;27.80;99.60;;;;;;5008676;28;20030;-73
2022/08/02 11:32:19;;;;;;;6.93;2.50;;;;;;;;;;5011217;28;20038;-73
2022/08/02 11:34:48;;;;;;;4.75;3.60;;;27.90;94.60;;;;;;5010728;28;20477;-73
2022/08/02 11:37:31;;;;;;;8.93;3.88;;;;;;;;;;5009207;28;20377;-72
2022/08/02 11:39:56;;;;;;;9.60;3.70;;;27.90;97.50;;;;;;5012009;28;20022;-73
2022/08/02 11:42:31;;;;;;;8.48;3.85;;;;;;;;;;5011338;28;20084;-73
2022/08/02 11:44:57;;;;;;;6.88;3.22;;;27.90;95.70;;;;;;5005391;28;20038;-72
2022/08/02 11:47:23;;;;;;;5.90;3.05;;;;;;;;;;5011403;28;20044;-72
2022/08/02 11:49:49;;;;;;;6.65;3.22;;;;;;;;;;5009492;28;20041;-71
2022/08/02 11:52:15;;;;;;;5.70;3.40;;;;;;;;;;5005836;28;20038;-71
2022/08/02 11:54:42;;;;;;;5.38;3.63;;;;;;;;;;5011490;28;20030;-71
2022/08/02 11:57:09;;;;;;;6.25;4.25;;;;;;;;;;5011787;28;20121;-71
2022/08/02 11:59:42;;;;;;;6.68;4.25;;;;;;;;;;5021703;28;20097;-72
2022/08/02 12:02:08;;;;;;;9.35;4.28;;;28.20;93.60;;;;;;5002631;28;20049;-72
2022/08/02 12:04:34;;;;;;;7.38;4.82;;;;;;;;;;5006143;28;20335;-72
2022/08/02 12:07:01;;;;;;;10.43;5.45;;;;;;;;;;5008127;28;20500;-72
2022/08/02 12:09:28;;;;;;;8.05;4.35;;;;;;;;;;5004266;28;20363;-72
2022/08/02 12:11:55;;;;;;;6.05;4.20;;;27.60;93.70;;;;;;5006943;28;20049;-72
2022/08/02 12:14:22;;;;;;;6.30;5.07;;;;;;;;;;5009916;28;20481;-71
2022/08/02 12:19:34;;;;;;;6.63;5.30;;;;;;;;;;5000140;28;20152;-72
2022/08/02 12:22:09;;;;;;;8.85;5.00;;;;;;;;;;5008028;28;20041;-72
2022/08/02 12:24:35;;;;;;;7.70;5.13;;;;;;;;;;5002251;28;20056;-73
2022/08/02 12:27:01;;;;;;;11.45;4.88;;;;;;;;;;5001425;28;20339;-72
2022/08/02 12:29:31;;;;;;;9.38;4.68;;;;;;;;;;5011478;28;20030;-72
2022/08/02 12:31:57;;;;;;;10.75;6.25;;;27.50;99.90;;;;;;5007799;28;20052;-72
2022/08/02 12:34:24;;;;;;;7.55;5.55;;;;;;;;;;5007849;28;20042;-72
2022/08/02 12:37:04;;;;;;;9.60;6.63;;;;;;;;;;5004022;28;20100;-72
2022/08/02 12:39:41;;;;;;;10.73;7.05;;;;;;;;;;5007962;28;20045;-74
2022/08/02 12:42:10;;;;;;;13.90;6.28;;;;;;;;;;5006459;28;20041;-72
2022/08/02 12:44:50;;;;;;;9.02;5.97;;;;;;;;;;5010571;28;20101;-71
2022/08/02 12:47:16;;;;;;;13.88;6.40;;;27.10;99.90;;;;;;5005326;28;20033;-71
2022/08/02 12:49:42;;;;;;;10.63;6.55;;;;;;;;;;5009460;28;20038;-71
2022/08/02 12:52:20;;;;;;;11.75;6.07;;;;;;;;;;5009155;28;20037;-71
2022/08/02 12:54:47;;;;;;;9.30;5.80;;;;;;;;;;5012776;28;20042;-71
2022/08/02 12:57:16;;;;;;;9.88;7.22;;;27.10;99.20;;;;;;5011222;28;20037;-71
2022/08/02 12:59:46;;;;;;;11.13;6.40;;;;;;;;;;5001853;28;20104;-71
2022/08/02 13:02:13;;;;;;;13.80;7.38;;;;;;;;;;5000363;28;20444;-74
2022/08/02 13:04:39;;;;;;;10.30;7.07;;;;;;;;;;5012136;28;20370;-72
2022/08/02 13:07:05;;;;;;;9.90;7.60;;;;;;;;;;5004179;28;20052;-73
2022/08/02 13:09:38;;;;;;;10.40;7.90;;;;;;;;;;5011429;28;20042;-72
2022/08/02 13:12:05;;;;;;;12.85;7.63;;;;;;;;;;5012625;28;20449;-73
2022/08/02 13:14:31;;;;;;;18.65;8.60;;;26.70;99.90;;;;;;5016588;28;20069;-72
2022/08/02 13:16:57;;;;;;;12.65;7.45;;;;;;;;;;5006559;28;20041;-71
2022/08/02 13:19:23;;;;;;;13.27;7.22;;;;;;;;;;5020107;28;20042;-71
2022/08/02 13:21:49;;;;;;;11.48;5.72;;;;;;;;;;5009753;28;20082;-71
2022/08/02 13:24:15;;;;;;;13.65;7.25;;;26.60;99.90;;;;;;5012332;28;20102;-71
2022/08/02 13:26:42;;;;;;;8.15;6.72;;;;;;;;;;5014466;28;20116;-71
2022/08/02 13:29:09;;;;;;;10.32;6.68;;;;;;;;;;5008536;28;20277;-72
2022/08/02 13:31:36;;;;;;;8.30;6.47;;;26.60;99.90;;;;;;5001622;28;20494;-71
2022/08/02 13:34:03;;;;;;;13.43;6.22;;;;;;;;;;5000826;28;20046;-72
2022/08/02 13:36:29;;;;;;;15.48;6.90;;;;;;;;;;5004229;28;20046;-72
2022/08/02 13:38:55;;;;;;;9.43;6.28;;;;;;;;;;5002494;28;20061;-72
2022/08/02 13:41:21;;;;;;;8.25;4.82;;;;;;;;;;5002993;28;20030;-72
2022/08/02 13:43:47;;;;;;;11.40;5.28;;;;;;;;;;5007371;28;20041;-72
2022/08/02 13:46:13;;;;;;;9.70;5.45;;;;;;;;;;5004171;28;20034;-73
2022/08/02 13:48:39;;;;;;;9.45;5.60;;;;;;;;;;5003416;28;20042;-73
2022/08/02 13:51:10;;;;;;;9.95;5.63;;;;;;;;;;5004602;28;20597;-72
2022/08/02 13:53:39;;;;;;;9.80;6.45;;;26.40;99.90;;;;;;5003228;28;20030;-72
2022/08/02 13:56:04;;;;;;;10.88;5.80;;;26.60;99.90;;;;;;5005257;28;20029;-72
2022/08/02 13:58:31;;;;;;;10.05;6.78;;;;;;;;;;5003991;28;20034;-71
2022/08/02 14:00:56;;;;;;;11.63;6.63;;;26.00;99.90;;;;;;5001201;28;20057;-72
2022/08/02 14:03:22;;;;;;;10.52;6.53;;;26.20;99.90;;;;;;5004389;28;20060;-72
2022/08/02 14:05:48;;;;;;;8.25;5.47;;;;;;;;;;5005070;28;20133;-73
2022/08/02 14:08:15;;;;;;;14.90;6.40;;;;;;;;;;5002450;28;20026;-72
2022/08/02 14:10:41;;;;;;;10.07;5.57;;;;;;;;;;5006167;28;20040;-72
2022/08/02 14:13:07;;;;;;;11.45;6.45;;;26.10;99.90;;;;;;5004649;28;20117;-72
2022/08/02 14:15:33;;;;;;;6.82;5.07;;;26.30;99.90;;;;;;5003728;28;20132;-72
2022/08/02 14:17:58;;;;;;;7.32;4.90;;;26.20;99.90;;;;;;5007177;28;20437;-72
2022/08/02 14:20:24;;;;;;;8.43;4.75;;;26.20;99.90;;;;;;4998555;28;20038;-72
2022/08/02 14:22:51;;;;;;;9.60;5.40;;;;;;;;;;5003984;28;20062;-72
2022/08/02 14:25:17;;;;;;;7.07;5.30;;;;;;;;;;5005130;28;20104;-73
2022/08/02 14:27:43;;;;;;;9.75;4.55;;;;;;;;;;5003985;28;20459;-72
2022/08/02 14:30:09;;;;;;;7.50;4.95;;;;;;;;;;5003031;28;20049;-72